createdAt,value
2019-04-01T00:00:40.405Z,2.47
2019-04-01T00:03:10.055Z,2.40
2019-04-01T00:05:38.464Z,3.80
2019-04-01T00:08:06.848Z,5.03
2019-04-01T00:10:35.260Z,5.60
2019-04-01T00:13:03.820Z,6.70
2019-04-01T00:15:32.245Z,7.73
2019-04-01T00:18:00.654Z,8.13
2019-04-01T00:20:29.088Z,8.07
2019-04-01T00:22:57.690Z,8.90
2019-04-01T00:25:26.152Z,8.93
2019-04-01T00:27:54.554Z,8.80
2019-04-01T00:30:22.982Z,9.40
2019-04-01T00:32:51.375Z,9.60
2019-04-01T00:35:19.815Z,10.17
2019-04-01T00:37:48.210Z,10.00
2019-04-01T00:40:16.610Z,10.10
2019-04-01T00:42:58.720Z,10.33
2019-04-01T00:45:28.795Z,9.97
2019-04-01T00:47:57.194Z,10.40
2019-04-01T00:50:25.703Z,11.13
2019-04-01T00:52:54.096Z,10.60
2019-04-01T00:55:22.497Z,10.47
2019-04-01T00:57:50.898Z,10.07
2019-04-01T01:00:20.310Z,9.87
2019-04-01T01:02:48.706Z,11.03
2019-04-01T01:05:17.111Z,10.30
2019-04-01T01:07:45.516Z,10.80
2019-04-01T01:10:13.929Z,11.03
2019-04-01T01:12:42.332Z,10.37
2019-04-01T01:15:10.761Z,10.40
2019-04-01T01:17:39.146Z,10.77
2019-04-01T01:20:07.542Z,10.03
2019-04-01T01:22:35.952Z,10.87
2019-04-01T01:25:04.623Z,10.60
2019-04-01T01:27:34.137Z,10.67
2019-04-01T01:30:02.537Z,10.97
2019-04-01T01:32:30.977Z,10.93
2019-04-01T01:34:59.368Z,10.43
2019-04-01T01:37:27.959Z,10.33
2019-04-01T01:39:57.000Z,10.20
2019-04-01T01:42:25.421Z,11.40
2019-04-01T01:44:53.816Z,10.27
2019-04-01T01:47:22.206Z,10.07
2019-04-01T01:49:50.629Z,11.53
2019-04-01T01:52:19.030Z,11.27
2019-04-01T01:54:47.433Z,10.40
2019-04-01T01:57:15.833Z,10.37
2019-04-01T01:59:44.226Z,10.93
2019-04-01T02:02:12.773Z,10.93
2019-04-01T02:04:41.164Z,10.87
2019-04-01T02:07:09.562Z,10.60
2019-04-01T02:09:37.956Z,10.77
2019-04-01T02:12:06.355Z,10.60
2019-04-01T02:14:34.752Z,11.20
2019-04-01T02:17:03.168Z,10.80
2019-04-01T02:19:31.548Z,10.60
2019-04-01T02:21:59.955Z,10.90
2019-04-01T02:24:28.353Z,10.07
2019-04-01T02:26:56.761Z,10.20
2019-04-01T02:29:25.159Z,10.40
2019-04-01T02:31:53.562Z,10.97
2019-04-01T02:34:21.957Z,10.70
2019-04-01T02:36:50.357Z,11.17
2019-04-01T02:39:18.758Z,10.67
2019-04-01T02:41:47.163Z,10.00
2019-04-01T02:44:15.574Z,10.60
2019-04-01T02:46:44.016Z,10.80
2019-04-01T02:49:12.412Z,11.00
2019-04-01T02:51:40.833Z,10.53
2019-04-01T02:54:09.226Z,10.37
2019-04-01T02:56:37.719Z,11.27
2019-04-01T02:59:06.114Z,10.83
2019-04-01T03:01:34.551Z,11.23
2019-04-01T03:04:02.940Z,10.77
2019-04-01T03:06:31.358Z,10.50
2019-04-01T03:08:59.785Z,10.30
2019-04-01T03:11:28.203Z,10.90
2019-04-01T03:13:56.600Z,10.07
2019-04-01T03:16:25.034Z,11.10
2019-04-01T03:18:53.428Z,10.33
2019-04-01T03:21:21.930Z,10.70
2019-04-01T03:23:50.331Z,10.57
2019-04-01T03:26:18.733Z,10.60
2019-04-01T03:28:47.147Z,10.97
2019-04-01T03:31:15.542Z,9.70
2019-04-01T03:33:43.950Z,10.63
2019-04-01T03:36:12.404Z,10.30
2019-04-01T03:38:40.879Z,10.30
2019-04-01T03:41:09.348Z,9.80
2019-04-01T03:43:37.846Z,10.43
2019-04-01T03:46:06.255Z,10.07
2019-04-01T03:48:34.647Z,9.90
2019-04-01T03:51:03.052Z,9.60
2019-04-01T03:53:31.451Z,9.07
2019-04-01T03:55:59.895Z,9.90
2019-04-01T03:58:28.298Z,9.97
2019-04-01T04:00:56.698Z,10.10
2019-04-01T04:03:25.116Z,9.53
2019-04-01T04:05:53.502Z,10.00
2019-04-01T04:08:21.934Z,9.20
2019-04-01T04:10:50.334Z,9.90
2019-04-01T04:13:18.779Z,9.83
2019-04-01T04:15:47.184Z,9.20
2019-04-01T04:18:15.606Z,9.17
2019-04-01T04:20:44.084Z,9.57
2019-04-01T04:23:12.519Z,9.10
2019-04-01T04:25:40.917Z,8.80
2019-04-01T04:28:09.459Z,9.00
2019-04-01T04:30:37.857Z,8.27
2019-04-01T04:33:06.314Z,8.33
2019-04-01T04:35:34.710Z,8.17
2019-04-01T04:38:03.124Z,7.80
2019-04-01T04:40:31.576Z,8.13
2019-04-01T04:42:59.991Z,8.37
2019-04-01T04:45:28.394Z,8.17
2019-04-01T04:47:56.831Z,8.70
2019-04-01T04:50:25.229Z,8.00
2019-04-01T04:52:53.685Z,7.73
2019-04-01T04:55:22.070Z,7.40
2019-04-01T04:57:50.498Z,7.47
2019-04-01T05:00:18.962Z,7.57
2019-04-01T05:02:47.391Z,7.30
2019-04-01T05:05:15.851Z,8.00
2019-04-01T05:07:44.247Z,7.80
2019-04-01T05:10:12.638Z,7.77
2019-04-01T05:12:41.086Z,7.33
2019-04-01T05:15:09.499Z,7.20
2019-04-01T05:17:39.964Z,7.17
2019-04-01T05:20:08.155Z,6.90
2019-04-01T05:22:36.552Z,6.23
2019-04-01T05:25:05.553Z,6.33
2019-04-01T05:27:34.019Z,6.80
2019-04-01T05:30:03.622Z,6.73
2019-04-01T05:32:32.868Z,6.30
2019-04-01T05:35:01.291Z,6.60
2019-04-01T05:37:29.710Z,6.57
2019-04-01T05:39:58.587Z,6.13
2019-04-01T05:42:27.178Z,6.50
2019-04-01T05:44:55.569Z,6.40
2019-04-01T05:47:25.647Z,6.10
2019-04-01T05:49:54.043Z,6.50
2019-04-01T05:52:22.466Z,5.60
2019-04-01T05:54:50.851Z,5.77
2019-04-01T05:57:19.242Z,5.70
2019-04-01T05:59:47.636Z,5.57
2019-04-01T06:02:16.038Z,5.23
2019-04-01T06:04:44.430Z,6.27
2019-04-01T06:07:13.401Z,5.80
2019-04-01T06:09:41.800Z,5.23
2019-04-01T06:12:10.195Z,5.47
2019-04-01T06:14:39.570Z,5.37
2019-04-01T06:17:07.962Z,5.63
2019-04-01T06:19:36.358Z,4.97
2019-04-01T06:22:04.777Z,4.70
2019-04-01T06:24:33.176Z,4.67
2019-04-01T06:27:02.089Z,5.00
2019-04-01T06:29:30.625Z,5.40
2019-04-01T06:31:59.088Z,5.30
2019-04-01T06:34:27.501Z,4.80
2019-04-01T06:36:55.899Z,5.07
2019-04-01T06:39:24.287Z,4.50
2019-04-01T06:41:52.693Z,4.67
2019-04-01T06:44:21.162Z,4.83
2019-04-01T06:46:49.548Z,4.13
2019-04-01T06:49:20.317Z,4.33
2019-04-01T06:51:48.066Z,4.03
2019-04-01T06:54:16.457Z,3.83
2019-04-01T06:56:44.848Z,3.83
2019-04-01T06:59:13.282Z,3.70
2019-04-01T07:01:41.716Z,3.93
2019-04-01T07:04:10.817Z,3.50
2019-04-01T07:06:39.206Z,3.03
2019-04-01T07:09:07.714Z,3.20
2019-04-01T07:11:36.175Z,3.40
2019-04-01T07:14:05.241Z,3.10
2019-04-01T07:16:33.642Z,2.97
2019-04-01T07:19:02.067Z,2.50
2019-04-01T07:21:30.453Z,2.70
2019-04-01T07:23:58.869Z,3.13
2019-04-01T07:26:27.268Z,2.70
2019-04-01T07:28:55.845Z,2.57
2019-04-01T07:31:24.237Z,3.00
2019-04-01T07:33:52.670Z,2.33
2019-04-01T07:36:21.066Z,2.37
2019-04-01T07:38:49.497Z,2.27
2019-04-01T07:41:17.906Z,2.30
2019-04-01T07:43:46.317Z,2.30
2019-04-01T07:46:14.875Z,2.30
2019-04-01T07:48:43.447Z,2.00
2019-04-01T07:51:11.945Z,2.20
2019-04-01T07:53:40.383Z,1.70
2019-04-01T07:56:08.775Z,2.00
2019-04-01T07:58:37.183Z,2.00
2019-04-01T08:01:05.569Z,1.67
2019-04-01T08:03:34.004Z,1.90
2019-04-01T08:06:02.393Z,1.50
2019-04-01T08:08:30.786Z,1.53
2019-04-01T08:10:59.191Z,1.67
2019-04-01T08:13:27.589Z,1.60
2019-04-01T08:15:56.001Z,1.80
2019-04-01T08:18:24.390Z,1.40
2019-04-01T08:20:52.793Z,1.60
2019-04-01T08:23:21.207Z,1.40
2019-04-01T08:25:49.608Z,1.40
2019-04-01T08:28:18.022Z,1.63
2019-04-01T08:30:46.418Z,1.20
2019-04-01T08:33:14.806Z,1.50
2019-04-01T08:35:43.281Z,1.40
2019-04-01T08:38:11.668Z,1.20
2019-04-01T08:40:40.063Z,1.10
2019-04-01T08:43:08.460Z,1.10
2019-04-01T08:45:36.856Z,1.20
2019-04-01T08:48:05.251Z,1.20
2019-04-01T08:50:33.641Z,1.00
2019-04-01T08:53:02.042Z,1.10
2019-04-01T08:55:30.432Z,1.10
2019-04-01T08:57:58.822Z,1.20
2019-04-01T09:00:27.219Z,0.97
2019-04-01T09:02:55.833Z,0.90
2019-04-01T09:05:24.226Z,0.90
2019-04-01T09:07:52.617Z,0.80
2019-04-01T09:10:21.012Z,0.90
2019-04-01T09:12:49.402Z,0.83
2019-04-01T09:15:17.873Z,1.00
2019-04-01T09:17:46.277Z,0.90
2019-04-01T09:20:14.744Z,0.80
2019-04-01T09:22:43.224Z,0.80
2019-04-01T09:25:11.734Z,0.80
2019-04-01T09:30:31.508Z,0.80
2019-04-01T09:32:59.935Z,0.83
2019-04-01T09:35:28.325Z,0.50
2019-04-01T09:37:56.820Z,0.80
2019-04-01T09:40:25.223Z,0.87
2019-04-01T09:42:53.616Z,0.60
2019-04-01T09:45:22.069Z,0.53
2019-04-01T09:47:50.461Z,0.67
2019-04-01T09:50:18.857Z,0.63
2019-04-01T09:52:47.245Z,0.60
2019-04-01T09:55:15.637Z,0.50
2019-04-01T09:57:44.127Z,0.60
2019-04-01T10:00:13.961Z,0.50
2019-04-01T10:02:42.432Z,0.50
2019-04-01T10:05:10.941Z,0.50
2019-04-01T10:07:39.447Z,0.50
2019-04-01T10:10:08.007Z,0.50
2019-04-01T10:12:36.400Z,0.40
2019-04-01T10:15:07.541Z,0.60
2019-04-01T10:17:35.976Z,0.50
2019-04-01T10:20:07.385Z,0.53
2019-04-01T10:22:35.777Z,0.50
2019-04-01T10:25:05.448Z,0.40
2019-04-01T10:27:33.896Z,0.40
2019-04-01T10:30:02.318Z,0.50
2019-04-01T10:32:30.718Z,0.30
2019-04-01T10:34:59.141Z,0.40
2019-04-01T10:37:27.553Z,0.40
2019-04-01T10:39:56.029Z,0.40
2019-04-01T10:42:24.423Z,0.40
2019-04-01T10:44:52.844Z,0.40
2019-04-01T10:47:21.330Z,0.30
2019-04-01T10:49:49.756Z,0.30
2019-04-01T10:52:18.412Z,0.30
2019-04-01T10:54:46.833Z,0.30
2019-04-01T10:57:15.244Z,0.30
2019-04-01T10:59:43.959Z,0.30
2019-04-01T11:02:12.427Z,0.40
2019-04-01T11:04:40.892Z,0.40
2019-04-01T11:07:09.309Z,0.20
2019-04-01T11:09:38.867Z,0.40
2019-04-01T11:12:07.354Z,0.30
2019-04-01T11:14:35.784Z,0.30
2019-04-01T11:17:04.695Z,0.40
2019-04-01T11:19:34.261Z,0.30
2019-04-01T11:22:03.747Z,0.30
2019-04-01T11:24:32.333Z,0.30
2019-04-01T11:27:00.727Z,0.40
2019-04-01T11:29:29.153Z,0.30
2019-04-01T11:31:57.608Z,0.37
2019-04-01T11:34:26.086Z,0.40
2019-04-01T11:36:54.592Z,0.40
2019-04-01T11:39:22.980Z,0.30
2019-04-01T11:41:51.418Z,0.33
2019-04-01T11:44:19.839Z,0.30
2019-04-01T11:46:48.369Z,0.40
2019-04-01T11:49:16.706Z,0.30
2019-04-01T11:51:45.126Z,0.30
2019-04-01T11:54:13.497Z,0.30
2019-04-01T11:56:41.942Z,0.30
2019-04-01T11:59:10.336Z,0.10
2019-04-01T12:01:38.725Z,0.20
2019-04-01T12:04:07.116Z,0.30
2019-04-01T12:06:35.516Z,0.30
2019-04-01T12:09:06.919Z,0.20
2019-04-01T12:11:35.490Z,0.30
2019-04-01T12:14:05.223Z,0.30
2019-04-01T12:16:33.950Z,0.30
2019-04-01T12:19:02.342Z,0.20
2019-04-01T12:21:31.012Z,0.23
2019-04-01T12:23:59.682Z,0.20
2019-04-01T12:26:28.081Z,0.30
2019-04-01T12:28:56.486Z,0.20
2019-04-01T12:31:24.875Z,0.20
2019-04-01T12:33:53.266Z,0.10
2019-04-01T12:36:21.660Z,0.10
2019-04-01T12:38:53.457Z,0.10
2019-04-01T12:41:20.243Z,0.30
2019-04-01T12:43:48.652Z,0.30
2019-04-01T12:46:17.219Z,0.20
2019-04-01T12:48:45.610Z,0.20
2019-04-01T12:51:14.120Z,0.20
2019-04-01T12:53:42.602Z,0.13
2019-04-01T12:56:11.002Z,0.20
2019-04-01T12:58:39.469Z,0.20
2019-04-01T13:01:07.878Z,0.20
2019-04-01T13:03:36.270Z,0.20
2019-04-01T13:06:04.795Z,0.20
2019-04-01T13:08:33.261Z,0.20
2019-04-01T13:11:01.686Z,0.20
2019-04-01T13:13:30.104Z,0.23
2019-04-01T13:15:58.542Z,0.20
2019-04-01T13:18:27.007Z,0.20
2019-04-01T13:20:55.438Z,0.10
2019-04-01T13:23:23.825Z,0.10
2019-04-01T13:25:52.246Z,0.10
2019-04-01T13:28:21.687Z,0.20
2019-04-01T13:30:50.219Z,0.20
2019-04-01T13:33:18.604Z,0.20
2019-04-01T13:35:47.055Z,0.20
2019-04-01T13:38:15.631Z,0.10
2019-04-01T13:40:44.519Z,0.10
2019-04-01T13:43:16.731Z,0.20
2019-04-01T13:45:43.345Z,0.20
2019-04-01T13:48:11.932Z,0.20
2019-04-01T13:50:40.364Z,0.20
2019-04-01T13:53:08.804Z,0.10
2019-04-01T13:55:38.144Z,0.20
2019-04-01T13:58:06.623Z,0.10
2019-04-01T14:00:35.114Z,0.20
2019-04-01T14:03:03.616Z,0.10
2019-04-01T14:05:32.131Z,0.20
2019-04-01T14:08:00.526Z,0.20
2019-04-01T14:10:28.974Z,0.20
2019-04-01T14:12:57.395Z,0.13
2019-04-01T14:15:25.782Z,0.20
2019-04-01T14:17:54.171Z,0.10
2019-04-01T14:20:23.908Z,0.10
2019-04-01T14:22:53.696Z,0.20
2019-04-01T14:25:22.316Z,0.20
2019-04-01T14:27:50.758Z,0.10
2019-04-01T14:30:19.149Z,0.10
2019-04-01T14:32:47.546Z,0.10
2019-04-01T14:35:15.943Z,0.13
2019-04-01T14:37:44.331Z,0.10
2019-04-01T14:40:14.420Z,0.10
2019-04-01T14:42:42.814Z,0.00
2019-04-01T14:45:11.233Z,0.13
2019-04-01T14:47:56.026Z,0.20
2019-04-01T14:50:10.305Z,0.10
2019-04-01T14:52:38.699Z,0.20
2019-04-01T14:55:07.097Z,0.10
2019-04-01T14:57:35.483Z,0.20
2019-04-01T15:00:06.657Z,0.20
2019-04-01T15:02:35.133Z,0.20
2019-04-01T15:05:04.950Z,0.27
2019-04-01T15:07:33.541Z,0.10
2019-04-01T15:10:02.019Z,0.10
2019-04-01T15:12:30.414Z,0.20
2019-04-01T15:14:58.807Z,0.20
2019-04-01T15:17:28.357Z,0.20
2019-04-01T15:19:56.947Z,0.20
2019-04-01T15:22:27.251Z,0.10
2019-04-01T15:24:55.696Z,0.20
2019-04-01T15:27:24.192Z,0.50
2019-04-01T15:29:52.587Z,0.33
2019-04-01T15:32:20.995Z,0.20
2019-04-01T15:34:49.531Z,0.30
2019-04-01T15:37:18.011Z,0.20
2019-04-01T15:39:47.396Z,0.30
2019-04-01T15:42:16.090Z,0.33
2019-04-01T15:44:44.477Z,0.30
2019-04-01T15:47:12.871Z,0.30
2019-04-01T15:49:41.264Z,0.33
2019-04-01T15:52:09.692Z,0.47
2019-04-01T15:54:38.154Z,0.30
2019-04-01T15:57:06.565Z,0.30
2019-04-01T15:59:35.121Z,0.40
2019-04-01T16:02:03.752Z,0.47
2019-04-01T16:04:32.313Z,0.40
2019-04-01T16:07:00.733Z,0.43
2019-04-01T16:09:29.659Z,0.30
2019-04-01T16:11:58.380Z,0.43
2019-04-01T16:14:26.840Z,0.40
2019-04-01T16:16:55.255Z,0.50
2019-04-01T16:19:23.653Z,0.60
2019-04-01T16:21:53.016Z,0.43
2019-04-01T16:24:21.543Z,0.60
2019-04-01T16:26:49.956Z,0.50
2019-04-01T16:29:18.352Z,0.40
2019-04-01T16:31:48.449Z,0.40
2019-04-01T16:34:16.928Z,0.50
2019-04-01T16:36:45.352Z,0.50
2019-04-01T16:39:13.745Z,0.53
2019-04-01T16:41:42.169Z,0.70
2019-04-01T16:44:10.556Z,0.70
2019-04-01T16:46:38.964Z,0.67
2019-04-01T16:49:07.675Z,0.80
2019-04-01T16:51:36.649Z,0.73
2019-04-01T16:54:05.125Z,0.70
2019-04-01T16:56:33.624Z,0.90
2019-04-01T16:59:02.082Z,0.73
2019-04-01T17:01:30.480Z,0.90
2019-04-01T17:03:58.878Z,0.80
2019-04-01T17:06:27.267Z,0.80
2019-04-01T17:08:55.659Z,0.70
2019-04-01T17:11:24.138Z,0.80
2019-04-01T17:13:52.543Z,0.73
2019-04-01T17:16:20.936Z,0.70
2019-04-01T17:18:49.356Z,0.60
2019-04-01T17:21:17.753Z,0.70
2019-04-01T17:23:46.717Z,0.60
2019-04-01T17:26:15.109Z,0.60
2019-04-01T17:28:43.596Z,0.70
2019-04-01T17:31:11.985Z,0.70
2019-04-01T17:33:40.408Z,0.80
2019-04-01T17:36:11.036Z,0.77
2019-04-01T17:38:39.528Z,0.70
2019-04-01T17:41:07.938Z,0.60
2019-04-01T17:43:36.323Z,0.80
2019-04-01T17:46:04.721Z,0.70
2019-04-01T17:48:33.281Z,0.70
2019-04-01T17:51:01.988Z,0.70
2019-04-01T17:53:30.380Z,0.60
2019-04-01T17:55:58.772Z,0.70
2019-04-01T17:58:27.170Z,0.67
2019-04-01T18:00:57.234Z,0.80
2019-04-01T18:03:25.635Z,0.70
2019-04-01T18:05:54.029Z,0.60
2019-04-01T18:08:22.422Z,0.77
2019-04-01T18:10:50.818Z,0.80
2019-04-01T18:13:19.211Z,0.60
2019-04-01T18:15:47.613Z,0.90
2019-04-01T18:18:26.584Z,0.70
2019-04-01T18:20:46.199Z,0.60
2019-04-01T18:23:14.598Z,0.87
2019-04-01T18:25:43.058Z,0.70
2019-04-01T18:28:12.909Z,0.77
2019-04-01T18:30:41.437Z,0.80
2019-04-01T18:33:09.831Z,0.70
2019-04-01T18:35:38.346Z,0.77
2019-04-01T18:38:06.761Z,0.60
2019-04-01T18:40:35.822Z,6.37
2019-04-01T18:43:04.485Z,10.97
2019-04-01T18:45:34.381Z,9.80
2019-04-01T18:48:02.802Z,9.20
2019-04-01T18:50:32.580Z,9.97
2019-04-01T18:53:01.023Z,9.63
2019-04-01T18:55:31.159Z,9.37
2019-04-01T18:57:59.713Z,8.67
2019-04-01T19:00:28.158Z,9.47
2019-04-01T19:02:56.566Z,9.93
2019-04-01T19:05:24.964Z,9.93
2019-04-01T19:07:53.436Z,10.27
2019-04-01T19:10:21.841Z,10.40
2019-04-01T19:12:50.238Z,10.80
2019-04-01T19:15:18.649Z,12.30
2019-04-01T19:17:47.043Z,11.50
2019-04-01T19:20:15.457Z,11.43
2019-04-01T19:22:43.856Z,13.20
2019-04-01T19:25:12.268Z,12.13
2019-04-01T19:27:40.668Z,12.50
2019-04-01T19:30:09.103Z,12.37
2019-04-01T19:32:38.376Z,12.63
2019-04-01T19:35:09.418Z,12.07
2019-04-01T19:37:37.632Z,12.20
2019-04-01T19:40:07.843Z,12.10
2019-04-01T19:42:39.277Z,11.43
2019-04-01T19:45:07.026Z,11.13
2019-04-01T19:47:35.417Z,11.07
2019-04-01T19:50:05.567Z,10.23
2019-04-01T19:52:35.266Z,10.20
2019-04-01T19:55:04.922Z,10.47
2019-04-01T19:57:33.327Z,10.37
2019-04-01T20:00:01.745Z,10.30
2019-04-01T20:02:30.297Z,9.63
2019-04-01T20:04:58.720Z,9.43
2019-04-01T20:07:27.115Z,9.20
2019-04-01T20:09:55.547Z,9.17
2019-04-01T20:12:23.948Z,9.13
2019-04-01T20:14:52.385Z,8.77
2019-04-01T20:17:20.784Z,8.23
2019-04-01T20:19:49.216Z,7.63
2019-04-01T20:22:17.605Z,7.73
2019-04-01T20:24:46.040Z,8.03
2019-04-01T20:27:15.259Z,7.77
2019-04-01T20:29:43.942Z,7.30
2019-04-01T20:32:17.569Z,7.07
2019-04-01T20:34:42.596Z,7.43
2019-04-01T20:37:10.998Z,7.23
2019-04-01T20:39:39.429Z,6.73
2019-04-01T20:42:10.433Z,7.10
2019-04-01T20:44:38.824Z,6.97
2019-04-01T20:47:07.991Z,6.33
2019-04-01T20:49:36.400Z,6.13
2019-04-01T20:52:04.790Z,5.70
2019-04-01T20:54:33.192Z,5.70
2019-04-01T20:57:01.591Z,5.57
2019-04-01T20:59:29.987Z,5.10
2019-04-01T21:01:58.379Z,5.63
2019-04-01T21:04:27.176Z,5.00
2019-04-01T21:06:55.865Z,5.50
2019-04-01T21:09:24.261Z,5.33
2019-04-01T21:11:52.649Z,4.93
2019-04-01T21:14:22.585Z,4.90
2019-04-01T21:16:51.255Z,5.00
2019-04-01T21:19:19.650Z,4.80
2019-04-01T21:21:48.036Z,4.73
2019-04-01T21:24:16.430Z,4.80
2019-04-01T21:26:44.823Z,4.90
2019-04-01T21:29:13.260Z,4.73
2019-04-01T21:31:41.692Z,4.83
2019-04-01T21:34:10.255Z,4.70
2019-04-01T21:36:39.571Z,5.20
2019-04-01T21:39:08.008Z,4.97
2019-04-01T21:41:36.406Z,5.07
2019-04-01T21:44:04.820Z,4.47
2019-04-01T21:46:33.218Z,4.37
2019-04-01T21:49:01.637Z,4.40
2019-04-01T21:51:30.040Z,4.23
2019-04-01T21:53:59.114Z,4.07
2019-04-01T21:56:28.251Z,4.17
2019-04-01T21:58:56.679Z,4.07
2019-04-01T22:01:25.125Z,4.10
2019-04-01T22:03:55.413Z,4.17
2019-04-01T22:06:23.884Z,3.70
2019-04-01T22:08:52.276Z,4.17
2019-04-01T22:11:20.665Z,4.10
2019-04-01T22:13:49.056Z,4.13
2019-04-01T22:16:18.174Z,3.70
2019-04-01T22:18:47.434Z,4.10
2019-04-01T22:21:15.830Z,4.07
2019-04-01T22:23:44.294Z,3.67
2019-04-01T22:26:12.690Z,3.53
2019-04-01T22:28:41.076Z,3.60
2019-04-01T22:31:09.509Z,3.80
2019-04-01T22:33:37.902Z,3.70
2019-04-01T22:36:06.327Z,3.40
2019-04-01T22:38:35.196Z,3.57
2019-04-01T22:41:03.936Z,3.60
2019-04-01T22:43:32.441Z,3.43
2019-04-01T22:46:00.852Z,3.47
2019-04-01T22:48:29.239Z,3.43
2019-04-01T22:50:57.901Z,3.80
2019-04-01T22:53:26.431Z,3.33
2019-04-01T22:55:54.852Z,3.50
2019-04-01T22:58:23.242Z,3.27
2019-04-01T23:00:51.649Z,3.50
2019-04-01T23:03:20.050Z,3.37
2019-04-01T23:05:48.472Z,3.57
2019-04-01T23:08:16.862Z,3.10
2019-04-01T23:10:45.299Z,3.17
2019-04-01T23:13:13.688Z,3.37
2019-04-01T23:15:43.160Z,3.67
2019-04-01T23:18:12.299Z,2.93
2019-04-01T23:20:40.701Z,3.20
2019-04-01T23:23:09.099Z,3.70
2019-04-01T23:25:37.573Z,3.43
2019-04-01T23:28:05.984Z,3.23
2019-04-01T23:30:34.409Z,3.10
2019-04-01T23:33:02.802Z,2.73
2019-04-01T23:35:31.225Z,3.23
2019-04-01T23:37:59.613Z,3.33
2019-04-01T23:40:28.042Z,3.10
2019-04-01T23:42:57.644Z,3.30
2019-04-01T23:45:26.440Z,2.90
2019-04-01T23:47:54.839Z,3.10
2019-04-01T23:50:23.249Z,3.27
2019-04-01T23:52:51.649Z,2.77
2019-04-01T23:55:20.041Z,3.13
2019-04-01T23:57:48.452Z,2.93
